sensor_id;sensor_type;location;lat;lon;timestamp;P1;durP1;ratioP1;P2;durP2;ratioP2
51921;SDS011;37948;53.260;6.394;2023-03-30T00:02:18;18.55;;;11.57;;
51921;SDS011;37948;53.260;6.394;2023-03-30T00:04:46;13.18;;;10.02;;
51921;SDS011;37948;53.260;6.394;2023-03-30T00:07:12;16.27;;;10.48;;
51921;SDS011;37948;53.260;6.394;2023-03-30T00:09:39;14.65;;;10.45;;
51921;SDS011;37948;53.260;6.394;2023-03-30T00:12:08;16.60;;;11.27;;
51921;SDS011;37948;53.260;6.394;2023-03-30T00:14:34;18.00;;;11.93;;
51921;SDS011;37948;53.260;6.394;2023-03-30T00:17:03;15.75;;;11.32;;
51921;SDS011;37948;53.260;6.394;2023-03-30T00:19:29;13.88;;;10.73;;
51921;SDS011;37948;53.260;6.394;2023-03-30T00:21:55;15.73;;;10.43;;
51921;SDS011;37948;53.260;6.394;2023-03-30T00:24:21;13.98;;;11.23;;
51921;SDS011;37948;53.260;6.394;2023-03-30T00:26:47;14.52;;;10.23;;
51921;SDS011;37948;53.260;6.394;2023-03-30T00:29:12;17.73;;;10.52;;
51921;SDS011;37948;53.260;6.394;2023-03-30T00:31:38;16.42;;;10.75;;
51921;SDS011;37948;53.260;6.394;2023-03-30T00:34:04;15.57;;;9.95;;
51921;SDS011;37948;53.260;6.394;2023-03-30T00:36:29;13.75;;;10.02;;
51921;SDS011;37948;53.260;6.394;2023-03-30T00:39:01;12.05;;;9.50;;
51921;SDS011;37948;53.260;6.394;2023-03-30T00:41:31;13.18;;;9.32;;
51921;SDS011;37948;53.260;6.394;2023-03-30T00:44:01;16.17;;;9.65;;
51921;SDS011;37948;53.260;6.394;2023-03-30T00:46:29;13.02;;;9.55;;
51921;SDS011;37948;53.260;6.394;2023-03-30T00:48:56;14.38;;;9.07;;
51921;SDS011;37948;53.260;6.394;2023-03-30T00:51:29;13.38;;;9.65;;
51921;SDS011;37948;53.260;6.394;2023-03-30T00:54:08;13.00;;;8.45;;
51921;SDS011;37948;53.260;6.394;2023-03-30T00:56:40;10.57;;;8.40;;
51921;SDS011;37948;53.260;6.394;2023-03-30T00:59:06;10.05;;;8.90;;
51921;SDS011;37948;53.260;6.394;2023-03-30T01:01:33;12.40;;;8.45;;
51921;SDS011;37948;53.260;6.394;2023-03-30T01:04:02;14.38;;;9.18;;
51921;SDS011;37948;53.260;6.394;2023-03-30T01:06:30;9.43;;;7.43;;
51921;SDS011;37948;53.260;6.394;2023-03-30T01:08:58;12.68;;;7.63;;
51921;SDS011;37948;53.260;6.394;2023-03-30T01:11:25;10.02;;;7.80;;
51921;SDS011;37948;53.260;6.394;2023-03-30T01:13:56;11.35;;;7.38;;
51921;SDS011;37948;53.260;6.394;2023-03-30T01:27:56;11.98;;;7.28;;
51921;SDS011;37948;53.260;6.394;2023-03-30T01:41:21;12.55;;;6.75;;
51921;SDS011;37948;53.260;6.394;2023-03-30T01:44:19;13.30;;;7.25;;
51921;SDS011;37948;53.260;6.394;2023-03-30T01:47:16;8.15;;;6.35;;
51921;SDS011;37948;53.260;6.394;2023-03-30T01:50:16;9.65;;;6.80;;
51921;SDS011;37948;53.260;6.394;2023-03-30T01:56:12;11.52;;;6.93;;
51921;SDS011;37948;53.260;6.394;2023-03-30T01:58:45;10.93;;;6.47;;
51921;SDS011;37948;53.260;6.394;2023-03-30T02:01:16;12.65;;;6.43;;
51921;SDS011;37948;53.260;6.394;2023-03-30T02:03:45;12.75;;;6.65;;
51921;SDS011;37948;53.260;6.394;2023-03-30T02:06:22;9.77;;;6.20;;
51921;SDS011;37948;53.260;6.394;2023-03-30T02:08:50;10.50;;;5.93;;
51921;SDS011;37948;53.260;6.394;2023-03-30T02:11:18;10.57;;;5.57;;
51921;SDS011;37948;53.260;6.394;2023-03-30T02:13:47;8.35;;;5.75;;
51921;SDS011;37948;53.260;6.394;2023-03-30T02:16:16;10.07;;;5.47;;
51921;SDS011;37948;53.260;6.394;2023-03-30T02:18:56;8.57;;;5.28;;
51921;SDS011;37948;53.260;6.394;2023-03-30T02:21:21;8.77;;;5.90;;
51921;SDS011;37948;53.260;6.394;2023-03-30T02:23:47;7.82;;;5.13;;
51921;SDS011;37948;53.260;6.394;2023-03-30T02:26:17;11.20;;;5.60;;
51921;SDS011;37948;53.260;6.394;2023-03-30T02:28:43;7.03;;;4.63;;
51921;SDS011;37948;53.260;6.394;2023-03-30T02:31:11;7.13;;;4.78;;
51921;SDS011;37948;53.260;6.394;2023-03-30T02:34:02;12.32;;;5.30;;
51921;SDS011;37948;53.260;6.394;2023-03-30T02:45:22;6.00;;;4.40;;
51921;SDS011;37948;53.260;6.394;2023-03-30T02:48:12;6.90;;;4.15;;
51921;SDS011;37948;53.260;6.394;2023-03-30T02:56:23;14.15;;;5.05;;
51921;SDS011;37948;53.260;6.394;2023-03-30T03:04:07;6.57;;;3.88;;
51921;SDS011;37948;53.260;6.394;2023-03-30T03:06:34;14.45;;;3.90;;
51921;SDS011;37948;53.260;6.394;2023-03-30T03:09:01;11.35;;;3.67;;
51921;SDS011;37948;53.260;6.394;2023-03-30T03:11:28;9.20;;;3.50;;
51921;SDS011;37948;53.260;6.394;2023-03-30T03:13:54;10.52;;;3.92;;
51921;SDS011;37948;53.260;6.394;2023-03-30T03:16:20;9.63;;;4.30;;
51921;SDS011;37948;53.260;6.394;2023-03-30T03:18:46;8.02;;;3.53;;
51921;SDS011;37948;53.260;6.394;2023-03-30T03:21:13;11.45;;;3.45;;
51921;SDS011;37948;53.260;6.394;2023-03-30T03:23:39;7.80;;;3.63;;
51921;SDS011;37948;53.260;6.394;2023-03-30T03:26:05;7.32;;;3.40;;
51921;SDS011;37948;53.260;6.394;2023-03-30T03:28:32;7.63;;;3.40;;
51921;SDS011;37948;53.260;6.394;2023-03-30T03:30:57;12.05;;;3.67;;
51921;SDS011;37948;53.260;6.394;2023-03-30T03:33:24;13.55;;;4.07;;
51921;SDS011;37948;53.260;6.394;2023-03-30T03:35:51;6.40;;;3.13;;
51921;SDS011;37948;53.260;6.394;2023-03-30T03:38:24;11.38;;;3.63;;
51921;SDS011;37948;53.260;6.394;2023-03-30T03:40:54;9.35;;;3.28;;
51921;SDS011;37948;53.260;6.394;2023-03-30T03:43:21;7.15;;;3.45;;
51921;SDS011;37948;53.260;6.394;2023-03-30T03:45:48;8.52;;;3.78;;
51921;SDS011;37948;53.260;6.394;2023-03-30T03:48:14;9.45;;;4.35;;
51921;SDS011;37948;53.260;6.394;2023-03-30T03:50:42;9.98;;;3.67;;
51921;SDS011;37948;53.260;6.394;2023-03-30T03:53:09;7.10;;;3.67;;
51921;SDS011;37948;53.260;6.394;2023-03-30T03:55:35;10.63;;;3.80;;
51921;SDS011;37948;53.260;6.394;2023-03-30T03:58:04;17.92;;;4.22;;
51921;SDS011;37948;53.260;6.394;2023-03-30T04:00:31;8.35;;;3.50;;
51921;SDS011;37948;53.260;6.394;2023-03-30T04:02:57;18.88;;;4.30;;
51921;SDS011;37948;53.260;6.394;2023-03-30T04:05:24;12.63;;;4.18;;
51921;SDS011;37948;53.260;6.394;2023-03-30T04:07:50;7.75;;;3.40;;
51921;SDS011;37948;53.260;6.394;2023-03-30T04:10:20;6.25;;;3.67;;
51921;SDS011;37948;53.260;6.394;2023-03-30T04:12:47;16.08;;;3.38;;
51921;SDS011;37948;53.260;6.394;2023-03-30T04:15:12;9.90;;;3.88;;
51921;SDS011;37948;53.260;6.394;2023-03-30T04:17:38;20.77;;;4.28;;
51921;SDS011;37948;53.260;6.394;2023-03-30T04:20:05;12.55;;;3.67;;
51921;SDS011;37948;53.260;6.394;2023-03-30T04:22:36;9.23;;;3.25;;
51921;SDS011;37948;53.260;6.394;2023-03-30T04:25:09;4.18;;;2.67;;
51921;SDS011;37948;53.260;6.394;2023-03-30T04:27:35;12.40;;;3.47;;
51921;SDS011;37948;53.260;6.394;2023-03-30T04:30:04;11.15;;;3.17;;
51921;SDS011;37948;53.260;6.394;2023-03-30T04:32:30;10.63;;;2.67;;
51921;SDS011;37948;53.260;6.394;2023-03-30T04:34:59;10.38;;;3.15;;
51921;SDS011;37948;53.260;6.394;2023-03-30T04:37:25;11.65;;;2.95;;
51921;SDS011;37948;53.260;6.394;2023-03-30T04:39:57;7.60;;;2.78;;
51921;SDS011;37948;53.260;6.394;2023-03-30T04:42:25;9.35;;;2.80;;
51921;SDS011;37948;53.260;6.394;2023-03-30T04:44:58;13.18;;;2.42;;
51921;SDS011;37948;53.260;6.394;2023-03-30T04:47:24;11.50;;;3.03;;
51921;SDS011;37948;53.260;6.394;2023-03-30T04:49:51;8.32;;;2.80;;
51921;SDS011;37948;53.260;6.394;2023-03-30T04:52:17;10.38;;;2.97;;
51921;SDS011;37948;53.260;6.394;2023-03-30T04:54:43;10.65;;;2.90;;
51921;SDS011;37948;53.260;6.394;2023-03-30T04:57:09;11.25;;;3.20;;
51921;SDS011;37948;53.260;6.394;2023-03-30T04:59:36;11.50;;;2.40;;
51921;SDS011;37948;53.260;6.394;2023-03-30T05:02:01;11.43;;;3.13;;
51921;SDS011;37948;53.260;6.394;2023-03-30T05:04:28;11.50;;;2.50;;
51921;SDS011;37948;53.260;6.394;2023-03-30T05:06:53;11.10;;;2.67;;
51921;SDS011;37948;53.260;6.394;2023-03-30T05:09:21;7.10;;;2.75;;
51921;SDS011;37948;53.260;6.394;2023-03-30T05:11:47;6.93;;;2.47;;
51921;SDS011;37948;53.260;6.394;2023-03-30T05:14:13;7.95;;;2.53;;
51921;SDS011;37948;53.260;6.394;2023-03-30T05:16:39;8.95;;;2.42;;
51921;SDS011;37948;53.260;6.394;2023-03-30T05:19:05;9.48;;;3.13;;
51921;SDS011;37948;53.260;6.394;2023-03-30T05:21:31;10.80;;;2.70;;
51921;SDS011;37948;53.260;6.394;2023-03-30T05:23:56;6.93;;;2.80;;
51921;SDS011;37948;53.260;6.394;2023-03-30T05:26:22;8.95;;;2.45;;
51921;SDS011;37948;53.260;6.394;2023-03-30T05:28:48;12.27;;;3.00;;
51921;SDS011;37948;53.260;6.394;2023-03-30T05:31:14;13.13;;;3.00;;
51921;SDS011;37948;53.260;6.394;2023-03-30T05:33:41;10.57;;;3.00;;
51921;SDS011;37948;53.260;6.394;2023-03-30T05:36:07;14.43;;;3.40;;
51921;SDS011;37948;53.260;6.394;2023-03-30T05:38:33;12.23;;;3.13;;
51921;SDS011;37948;53.260;6.394;2023-03-30T05:41:00;11.25;;;2.83;;
51921;SDS011;37948;53.260;6.394;2023-03-30T05:43:26;16.63;;;2.88;;
51921;SDS011;37948;53.260;6.394;2023-03-30T05:45:52;7.50;;;2.72;;
51921;SDS011;37948;53.260;6.394;2023-03-30T05:48:17;14.13;;;3.55;;
51921;SDS011;37948;53.260;6.394;2023-03-30T05:50:43;12.15;;;3.25;;
51921;SDS011;37948;53.260;6.394;2023-03-30T05:53:11;6.32;;;2.22;;
51921;SDS011;37948;53.260;6.394;2023-03-30T05:55:37;9.07;;;3.05;;
51921;SDS011;37948;53.260;6.394;2023-03-30T05:58:02;11.95;;;3.17;;
51921;SDS011;37948;53.260;6.394;2023-03-30T06:00:28;11.07;;;3.30;;
51921;SDS011;37948;53.260;6.394;2023-03-30T06:02:57;6.68;;;2.28;;
51921;SDS011;37948;53.260;6.394;2023-03-30T06:05:23;7.78;;;2.80;;
51921;SDS011;37948;53.260;6.394;2023-03-30T06:07:49;12.18;;;2.92;;
51921;SDS011;37948;53.260;6.394;2023-03-30T06:10:17;16.52;;;3.50;;
51921;SDS011;37948;53.260;6.394;2023-03-30T06:12:42;10.25;;;3.00;;
51921;SDS011;37948;53.260;6.394;2023-03-30T06:15:08;13.80;;;3.88;;
51921;SDS011;37948;53.260;6.394;2023-03-30T06:17:34;10.57;;;3.40;;
51921;SDS011;37948;53.260;6.394;2023-03-30T06:20:01;13.30;;;2.97;;
51921;SDS011;37948;53.260;6.394;2023-03-30T06:22:33;11.23;;;3.30;;
51921;SDS011;37948;53.260;6.394;2023-03-30T06:24:59;9.32;;;2.90;;
51921;SDS011;37948;53.260;6.394;2023-03-30T06:27:24;9.05;;;2.95;;
51921;SDS011;37948;53.260;6.394;2023-03-30T06:29:50;10.43;;;3.50;;
51921;SDS011;37948;53.260;6.394;2023-03-30T06:32:17;7.53;;;2.70;;
51921;SDS011;37948;53.260;6.394;2023-03-30T06:34:43;10.90;;;3.55;;
51921;SDS011;37948;53.260;6.394;2023-03-30T06:37:08;11.80;;;3.47;;
51921;SDS011;37948;53.260;6.394;2023-03-30T06:39:34;11.30;;;3.33;;
51921;SDS011;37948;53.260;6.394;2023-03-30T06:42:03;13.38;;;3.05;;
51921;SDS011;37948;53.260;6.394;2023-03-30T06:44:30;13.45;;;3.28;;
51921;SDS011;37948;53.260;6.394;2023-03-30T06:46:56;10.40;;;2.65;;
51921;SDS011;37948;53.260;6.394;2023-03-30T06:49:22;12.77;;;3.35;;
51921;SDS011;37948;53.260;6.394;2023-03-30T06:51:47;10.32;;;3.50;;
51921;SDS011;37948;53.260;6.394;2023-03-30T06:54:13;10.20;;;2.63;;
51921;SDS011;37948;53.260;6.394;2023-03-30T06:56:44;9.82;;;3.35;;
51921;SDS011;37948;53.260;6.394;2023-03-30T06:59:13;13.50;;;3.67;;
51921;SDS011;37948;53.260;6.394;2023-03-30T07:01:39;9.45;;;3.25;;
51921;SDS011;37948;53.260;6.394;2023-03-30T07:04:05;7.53;;;2.63;;
51921;SDS011;37948;53.260;6.394;2023-03-30T07:06:31;12.20;;;2.95;;
51921;SDS011;37948;53.260;6.394;2023-03-30T07:08:57;12.32;;;2.60;;
51921;SDS011;37948;53.260;6.394;2023-03-30T07:11:22;17.98;;;3.25;;
51921;SDS011;37948;53.260;6.394;2023-03-30T07:13:48;14.73;;;3.22;;
51921;SDS011;37948;53.260;6.394;2023-03-30T07:16:14;19.88;;;3.78;;
51921;SDS011;37948;53.260;6.394;2023-03-30T07:18:40;15.07;;;3.65;;
51921;SDS011;37948;53.260;6.394;2023-03-30T07:21:06;19.02;;;4.13;;
51921;SDS011;37948;53.260;6.394;2023-03-30T07:23:32;14.10;;;3.00;;
51921;SDS011;37948;53.260;6.394;2023-03-30T07:25:58;16.63;;;3.33;;
51921;SDS011;37948;53.260;6.394;2023-03-30T07:28:23;18.70;;;4.32;;
51921;SDS011;37948;53.260;6.394;2023-03-30T07:30:49;18.73;;;3.45;;
51921;SDS011;37948;53.260;6.394;2023-03-30T07:33:16;15.75;;;3.60;;
51921;SDS011;37948;53.260;6.394;2023-03-30T07:35:45;14.20;;;3.55;;
51921;SDS011;37948;53.260;6.394;2023-03-30T07:38:12;15.23;;;3.45;;
51921;SDS011;37948;53.260;6.394;2023-03-30T07:40:38;14.98;;;3.80;;
51921;SDS011;37948;53.260;6.394;2023-03-30T07:43:05;21.08;;;3.47;;
51921;SDS011;37948;53.260;6.394;2023-03-30T07:45:31;13.63;;;3.05;;
51921;SDS011;37948;53.260;6.394;2023-03-30T07:47:57;27.17;;;4.97;;
51921;SDS011;37948;53.260;6.394;2023-03-30T07:50:23;18.48;;;3.78;;
51921;SDS011;37948;53.260;6.394;2023-03-30T07:52:49;20.42;;;4.20;;
51921;SDS011;37948;53.260;6.394;2023-03-30T07:55:15;19.05;;;5.68;;
51921;SDS011;37948;53.260;6.394;2023-03-30T07:57:41;18.15;;;4.07;;
51921;SDS011;37948;53.260;6.394;2023-03-30T08:00:08;29.33;;;4.95;;
51921;SDS011;37948;53.260;6.394;2023-03-30T08:02:34;23.48;;;4.57;;
51921;SDS011;37948;53.260;6.394;2023-03-30T08:05:01;23.45;;;5.50;;
51921;SDS011;37948;53.260;6.394;2023-03-30T08:07:27;23.88;;;4.43;;
51921;SDS011;37948;53.260;6.394;2023-03-30T08:09:54;28.35;;;5.15;;
51921;SDS011;37948;53.260;6.394;2023-03-30T08:12:19;29.95;;;4.75;;
51921;SDS011;37948;53.260;6.394;2023-03-30T08:14:45;25.30;;;4.65;;
51921;SDS011;37948;53.260;6.394;2023-03-30T08:17:11;24.15;;;4.45;;
51921;SDS011;37948;53.260;6.394;2023-03-30T08:19:36;28.02;;;5.03;;
51921;SDS011;37948;53.260;6.394;2023-03-30T08:22:02;26.83;;;5.75;;
51921;SDS011;37948;53.260;6.394;2023-03-30T08:24:28;26.48;;;4.43;;
51921;SDS011;37948;53.260;6.394;2023-03-30T08:26:54;29.00;;;5.13;;
51921;SDS011;37948;53.260;6.394;2023-03-30T08:29:20;21.67;;;5.00;;
51921;SDS011;37948;53.260;6.394;2023-03-30T08:31:46;29.95;;;5.05;;
51921;SDS011;37948;53.260;6.394;2023-03-30T08:34:12;35.63;;;5.47;;
51921;SDS011;37948;53.260;6.394;2023-03-30T08:36:38;21.23;;;5.05;;
51921;SDS011;37948;53.260;6.394;2023-03-30T08:39:04;25.45;;;5.18;;
51921;SDS011;37948;53.260;6.394;2023-03-30T08:41:40;18.95;;;4.88;;
51921;SDS011;37948;53.260;6.394;2023-03-30T08:46:54;33.40;;;6.32;;
51921;SDS011;37948;53.260;6.394;2023-03-30T08:49:20;28.92;;;6.10;;
51921;SDS011;37948;53.260;6.394;2023-03-30T08:51:47;26.45;;;5.25;;
51921;SDS011;37948;53.260;6.394;2023-03-30T08:54:15;31.48;;;4.75;;
51921;SDS011;37948;53.260;6.394;2023-03-30T08:59:28;26.48;;;5.20;;
51921;SDS011;37948;53.260;6.394;2023-03-30T09:07:30;30.45;;;6.50;;
51921;SDS011;37948;53.260;6.394;2023-03-30T09:10:12;27.63;;;6.00;;
51921;SDS011;37948;53.260;6.394;2023-03-30T09:12:44;22.35;;;4.82;;
51921;SDS011;37948;53.260;6.394;2023-03-30T09:21:02;21.83;;;4.63;;
51921;SDS011;37948;53.260;6.394;2023-03-30T09:23:30;27.77;;;4.93;;
51921;SDS011;37948;53.260;6.394;2023-03-30T09:28:58;28.83;;;5.72;;
51921;SDS011;37948;53.260;6.394;2023-03-30T09:32:10;30.70;;;5.68;;
51921;SDS011;37948;53.260;6.394;2023-03-30T09:34:38;16.75;;;4.57;;
51921;SDS011;37948;53.260;6.394;2023-03-30T09:37:09;24.88;;;5.55;;
51921;SDS011;37948;53.260;6.394;2023-03-30T09:39:42;23.02;;;3.90;;
51921;SDS011;37948;53.260;6.394;2023-03-30T09:45:02;18.90;;;4.03;;
51921;SDS011;37948;53.260;6.394;2023-03-30T09:47:39;17.98;;;4.53;;
51921;SDS011;37948;53.260;6.394;2023-03-30T09:50:07;16.50;;;4.05;;
51921;SDS011;37948;53.260;6.394;2023-03-30T09:52:41;27.10;;;3.97;;
51921;SDS011;37948;53.260;6.394;2023-03-30T09:57:46;16.00;;;3.67;;
51921;SDS011;37948;53.260;6.394;2023-03-30T10:00:32;20.58;;;4.25;;
51921;SDS011;37948;53.260;6.394;2023-03-30T10:03:02;22.02;;;4.40;;
51921;SDS011;37948;53.260;6.394;2023-03-30T10:05:31;24.98;;;4.65;;
51921;SDS011;37948;53.260;6.394;2023-03-30T10:07:59;21.40;;;4.97;;
51921;SDS011;37948;53.260;6.394;2023-03-30T10:13:04;18.35;;;3.45;;
51921;SDS011;37948;53.260;6.394;2023-03-30T10:15:42;17.58;;;3.30;;
51921;SDS011;37948;53.260;6.394;2023-03-30T10:18:18;25.48;;;4.38;;
51921;SDS011;37948;53.260;6.394;2023-03-30T10:20:50;19.67;;;4.28;;
51921;SDS011;37948;53.260;6.394;2023-03-30T10:23:18;17.92;;;3.63;;
51921;SDS011;37948;53.260;6.394;2023-03-30T10:25:47;17.33;;;3.08;;
51921;SDS011;37948;53.260;6.394;2023-03-30T10:28:19;18.55;;;2.85;;
51921;SDS011;37948;53.260;6.394;2023-03-30T10:30:51;15.50;;;3.75;;
51921;SDS011;37948;53.260;6.394;2023-03-30T10:33:20;14.13;;;3.72;;
51921;SDS011;37948;53.260;6.394;2023-03-30T10:35:46;25.92;;;4.80;;
51921;SDS011;37948;53.260;6.394;2023-03-30T10:38:17;16.50;;;3.65;;
51921;SDS011;37948;53.260;6.394;2023-03-30T10:40:44;28.95;;;4.35;;
51921;SDS011;37948;53.260;6.394;2023-03-30T10:43:16;18.23;;;3.92;;
51921;SDS011;37948;53.260;6.394;2023-03-30T10:45:49;21.00;;;4.55;;
51921;SDS011;37948;53.260;6.394;2023-03-30T10:51:19;21.02;;;4.28;;
51921;SDS011;37948;53.260;6.394;2023-03-30T10:56:45;24.60;;;4.88;;
51921;SDS011;37948;53.260;6.394;2023-03-30T11:04:37;31.38;;;6.15;;
51921;SDS011;37948;53.260;6.394;2023-03-30T11:07:22;27.92;;;4.78;;
51921;SDS011;37948;53.260;6.394;2023-03-30T11:09:59;28.38;;;5.20;;
51921;SDS011;37948;53.260;6.394;2023-03-30T11:12:33;19.67;;;4.88;;
51921;SDS011;37948;53.260;6.394;2023-03-30T11:15:23;32.92;;;5.68;;
51921;SDS011;37948;53.260;6.394;2023-03-30T11:18:04;27.73;;;5.80;;
51921;SDS011;37948;53.260;6.394;2023-03-30T11:20:42;28.15;;;4.65;;
51921;SDS011;37948;53.260;6.394;2023-03-30T11:23:26;23.30;;;4.18;;
51921;SDS011;37948;53.260;6.394;2023-03-30T11:26:02;22.55;;;4.97;;
51921;SDS011;37948;53.260;6.394;2023-03-30T11:30:57;24.95;;;5.20;;
51921;SDS011;37948;53.260;6.394;2023-03-30T11:36:04;24.13;;;4.82;;
51921;SDS011;37948;53.260;6.394;2023-03-30T11:38:48;19.05;;;4.38;;
51921;SDS011;37948;53.260;6.394;2023-03-30T11:41:21;23.65;;;4.15;;
51921;SDS011;37948;53.260;6.394;2023-03-30T11:43:55;27.67;;;4.60;;
51921;SDS011;37948;53.260;6.394;2023-03-30T11:46:39;22.95;;;4.93;;
51921;SDS011;37948;53.260;6.394;2023-03-30T12:00:32;20.05;;;4.05;;
51921;SDS011;37948;53.260;6.394;2023-03-30T12:02:46;20.15;;;4.55;;
51921;SDS011;37948;53.260;6.394;2023-03-30T12:11:01;19.98;;;5.07;;
51921;SDS011;37948;53.260;6.394;2023-03-30T12:13:36;21.38;;;5.45;;
51921;SDS011;37948;53.260;6.394;2023-03-30T12:16:07;30.88;;;4.85;;
51921;SDS011;37948;53.260;6.394;2023-03-30T12:18:41;24.67;;;4.72;;
51921;SDS011;37948;53.260;6.394;2023-03-30T12:21:27;24.27;;;4.97;;
51921;SDS011;37948;53.260;6.394;2023-03-30T12:26:42;24.77;;;4.13;;
51921;SDS011;37948;53.260;6.394;2023-03-30T12:29:09;19.90;;;4.18;;
51921;SDS011;37948;53.260;6.394;2023-03-30T12:34:20;19.60;;;4.90;;
51921;SDS011;37948;53.260;6.394;2023-03-30T12:36:57;32.55;;;5.47;;
51921;SDS011;37948;53.260;6.394;2023-03-30T12:39:40;17.85;;;4.80;;
51921;SDS011;37948;53.260;6.394;2023-03-30T12:50:59;24.67;;;4.60;;
51921;SDS011;37948;53.260;6.394;2023-03-30T12:59:17;31.55;;;5.90;;
51921;SDS011;37948;53.260;6.394;2023-03-30T13:04:47;23.38;;;4.88;;
51921;SDS011;37948;53.260;6.394;2023-03-30T13:07:23;29.30;;;4.75;;
51921;SDS011;37948;53.260;6.394;2023-03-30T13:15:48;24.70;;;5.03;;
51921;SDS011;37948;53.260;6.394;2023-03-30T13:20:58;29.35;;;5.25;;
51921;SDS011;37948;53.260;6.394;2023-03-30T13:26:21;23.15;;;5.60;;
51921;SDS011;37948;53.260;6.394;2023-03-30T13:31:33;19.48;;;5.05;;
51921;SDS011;37948;53.260;6.394;2023-03-30T13:34:28;21.77;;;5.43;;
51921;SDS011;37948;53.260;6.394;2023-03-30T13:39:35;20.33;;;4.32;;
51921;SDS011;37948;53.260;6.394;2023-03-30T13:50:36;19.88;;;4.18;;
51921;SDS011;37948;53.260;6.394;2023-03-30T13:53:12;30.15;;;5.13;;
51921;SDS011;37948;53.260;6.394;2023-03-30T13:55:41;24.17;;;4.90;;
51921;SDS011;37948;53.260;6.394;2023-03-30T13:58:11;22.17;;;4.60;;
51921;SDS011;37948;53.260;6.394;2023-03-30T14:03:34;30.38;;;6.50;;
51921;SDS011;37948;53.260;6.394;2023-03-30T14:06:01;25.67;;;5.60;;
51921;SDS011;37948;53.260;6.394;2023-03-30T14:08:33;21.42;;;4.70;;
51921;SDS011;37948;53.260;6.394;2023-03-30T14:11:03;20.92;;;5.35;;
51921;SDS011;37948;53.260;6.394;2023-03-30T14:13:47;26.95;;;5.35;;
51921;SDS011;37948;53.260;6.394;2023-03-30T14:16:17;25.60;;;4.53;;
51921;SDS011;37948;53.260;6.394;2023-03-30T14:18:46;19.63;;;5.65;;
51921;SDS011;37948;53.260;6.394;2023-03-30T14:21:16;25.88;;;6.13;;
51921;SDS011;37948;53.260;6.394;2023-03-30T14:23:48;32.55;;;5.65;;
51921;SDS011;37948;53.260;6.394;2023-03-30T14:26:17;33.75;;;6.53;;
51921;SDS011;37948;53.260;6.394;2023-03-30T14:28:47;28.00;;;5.68;;
51921;SDS011;37948;53.260;6.394;2023-03-30T14:31:18;24.33;;;5.63;;
51921;SDS011;37948;53.260;6.394;2023-03-30T14:33:45;23.83;;;4.57;;
51921;SDS011;37948;53.260;6.394;2023-03-30T14:36:15;32.63;;;5.38;;
51921;SDS011;37948;53.260;6.394;2023-03-30T14:38:42;30.00;;;5.78;;
51921;SDS011;37948;53.260;6.394;2023-03-30T14:41:19;35.20;;;6.28;;
51921;SDS011;37948;53.260;6.394;2023-03-30T14:43:54;30.75;;;7.15;;
51921;SDS011;37948;53.260;6.394;2023-03-30T14:46:31;25.98;;;5.93;;
51921;SDS011;37948;53.260;6.394;2023-03-30T14:49:09;30.83;;;5.80;;
51921;SDS011;37948;53.260;6.394;2023-03-30T14:51:41;26.70;;;4.93;;
51921;SDS011;37948;53.260;6.394;2023-03-30T14:54:11;28.33;;;6.43;;
51921;SDS011;37948;53.260;6.394;2023-03-30T14:56:39;26.73;;;6.25;;
51921;SDS011;37948;53.260;6.394;2023-03-30T14:59:06;32.17;;;6.82;;
51921;SDS011;37948;53.260;6.394;2023-03-30T15:01:35;35.33;;;6.35;;
51921;SDS011;37948;53.260;6.394;2023-03-30T15:04:04;35.25;;;6.25;;
51921;SDS011;37948;53.260;6.394;2023-03-30T15:09:01;29.60;;;6.35;;
51921;SDS011;37948;53.260;6.394;2023-03-30T15:11:30;29.75;;;6.40;;
51921;SDS011;37948;53.260;6.394;2023-03-30T15:14:00;34.13;;;6.28;;
51921;SDS011;37948;53.260;6.394;2023-03-30T15:18:59;38.53;;;6.40;;
51921;SDS011;37948;53.260;6.394;2023-03-30T15:21:28;33.90;;;6.03;;
51921;SDS011;37948;53.260;6.394;2023-03-30T15:23:57;35.50;;;7.25;;
51921;SDS011;37948;53.260;6.394;2023-03-30T15:26:24;40.33;;;7.07;;
51921;SDS011;37948;53.260;6.394;2023-03-30T15:28:52;34.33;;;7.00;;
51921;SDS011;37948;53.260;6.394;2023-03-30T15:31:20;27.85;;;5.85;;
51921;SDS011;37948;53.260;6.394;2023-03-30T15:33:50;31.45;;;6.57;;
51921;SDS011;37948;53.260;6.394;2023-03-30T15:38:50;38.97;;;7.60;;
51921;SDS011;37948;53.260;6.394;2023-03-30T15:41:20;32.88;;;7.43;;
51921;SDS011;37948;53.260;6.394;2023-03-30T15:43:52;33.65;;;7.35;;
51921;SDS011;37948;53.260;6.394;2023-03-30T15:46:20;30.70;;;7.20;;
51921;SDS011;37948;53.260;6.394;2023-03-30T15:48:47;30.85;;;6.80;;
51921;SDS011;37948;53.260;6.394;2023-03-30T15:54:02;36.10;;;6.53;;
51921;SDS011;37948;53.260;6.394;2023-03-30T15:56:54;33.72;;;6.43;;
51921;SDS011;37948;53.260;6.394;2023-03-30T15:59:42;30.73;;;6.97;;
51921;SDS011;37948;53.260;6.394;2023-03-30T16:02:34;32.40;;;8.63;;
51921;SDS011;37948;53.260;6.394;2023-03-30T16:05:06;35.25;;;7.05;;
51921;SDS011;37948;53.260;6.394;2023-03-30T16:07:40;33.72;;;6.75;;
51921;SDS011;37948;53.260;6.394;2023-03-30T16:10:11;27.90;;;5.53;;
51921;SDS011;37948;53.260;6.394;2023-03-30T16:12:37;32.67;;;6.78;;
51921;SDS011;37948;53.260;6.394;2023-03-30T16:15:11;36.90;;;6.93;;
51921;SDS011;37948;53.260;6.394;2023-03-30T16:17:41;31.88;;;6.80;;
51921;SDS011;37948;53.260;6.394;2023-03-30T16:20:18;33.38;;;7.82;;
51921;SDS011;37948;53.260;6.394;2023-03-30T16:22:45;29.95;;;6.10;;
51921;SDS011;37948;53.260;6.394;2023-03-30T16:25:12;40.67;;;7.38;;
51921;SDS011;37948;53.260;6.394;2023-03-30T16:27:38;46.05;;;9.02;;
51921;SDS011;37948;53.260;6.394;2023-03-30T16:30:21;31.35;;;6.35;;
51921;SDS011;37948;53.260;6.394;2023-03-30T16:32:53;27.65;;;5.97;;
51921;SDS011;37948;53.260;6.394;2023-03-30T16:35:19;31.73;;;5.70;;
51921;SDS011;37948;53.260;6.394;2023-03-30T16:37:45;37.35;;;7.63;;
51921;SDS011;37948;53.260;6.394;2023-03-30T16:40:20;37.83;;;6.53;;
51921;SDS011;37948;53.260;6.394;2023-03-30T16:42:52;27.13;;;6.30;;
51921;SDS011;37948;53.260;6.394;2023-03-30T16:45:18;41.33;;;7.38;;
51921;SDS011;37948;53.260;6.394;2023-03-30T16:47:43;31.63;;;6.28;;
51921;SDS011;37948;53.260;6.394;2023-03-30T16:52:47;39.65;;;7.10;;
51921;SDS011;37948;53.260;6.394;2023-03-30T16:55:14;35.50;;;6.30;;
51921;SDS011;37948;53.260;6.394;2023-03-30T16:57:40;40.15;;;6.43;;
51921;SDS011;37948;53.260;6.394;2023-03-30T17:00:25;30.45;;;6.13;;
51921;SDS011;37948;53.260;6.394;2023-03-30T17:02:55;31.80;;;7.07;;
51921;SDS011;37948;53.260;6.394;2023-03-30T17:05:21;34.38;;;6.88;;
51921;SDS011;37948;53.260;6.394;2023-03-30T17:07:47;38.97;;;7.20;;
51921;SDS011;37948;53.260;6.394;2023-03-30T17:10:14;39.65;;;7.60;;
51921;SDS011;37948;53.260;6.394;2023-03-30T17:12:43;34.95;;;6.65;;
51921;SDS011;37948;53.260;6.394;2023-03-30T17:15:09;37.80;;;7.40;;
51921;SDS011;37948;53.260;6.394;2023-03-30T17:17:35;29.85;;;6.63;;
51921;SDS011;37948;53.260;6.394;2023-03-30T17:20:45;45.00;;;7.97;;
51921;SDS011;37948;53.260;6.394;2023-03-30T17:22:54;36.28;;;7.13;;
51921;SDS011;37948;53.260;6.394;2023-03-30T17:25:20;36.58;;;6.90;;
51921;SDS011;37948;53.260;6.394;2023-03-30T17:27:50;36.80;;;6.50;;
51921;SDS011;37948;53.260;6.394;2023-03-30T17:30:18;36.40;;;6.80;;
51921;SDS011;37948;53.260;6.394;2023-03-30T17:32:49;33.55;;;7.30;;
51921;SDS011;37948;53.260;6.394;2023-03-30T17:35:16;34.28;;;6.55;;
51921;SDS011;37948;53.260;6.394;2023-03-30T17:37:42;47.72;;;7.82;;
51921;SDS011;37948;53.260;6.394;2023-03-30T17:40:12;42.70;;;8.70;;
51921;SDS011;37948;53.260;6.394;2023-03-30T17:42:41;38.53;;;7.07;;